^^
Saratoga-Weather Station Historical Data
Daily Summary for June 12, 2021 Units:  Both    English   Metric
Daily Weekly Monthly Yearly Custom
  High: Low: Average:
Temperature: 51.4 °F /  10.8 °C 37.8 °F /  3.2 °C 44.4 °F /  6.9 °C
Dew Point: 40.8 °F /  4.9 °C 34.9 °F /  1.6 °C 38.3 °F /  3.5 °C
Humidity: 94% 60% 79%
Wind Speed: 17mph /  27.4km/h - 4.1mph /  6.6km/h
Wind Gust: 24mph /  38.6km/h - -
Wind- - WSW
Pressure: 29.9 in /  1012.9 hPa 29.7 in /  1006.8 hPa -
Precipitation: 0.2 in /  5.1 mm    
Historical Graphs
 
 
Tabular Data for June 12, 2021
Time Temperature Dew Point Pressure Wind Wind Speed Wind Gust Humidity Rainfall Rate (Hourly) solar
00:03 43.3 °F /  6.3 °C 39.2 °F /  4 °C 29.8in /  1008.8hPa WNW 0.9mph /  1.4km/h 5mph /  8km/h 85% 0.01in /  0.2mm 0 W/m2
00:08 43.2 °F /  6.2 °C 39 °F /  3.9 °C 29.8in /  1008.8hPa SW 6mph /  9.7km/h 9mph /  14.5km/h 85% 0.01in /  0.2mm 0 W/m2
00:13 43.2 °F /  6.2 °C 39 °F /  3.9 °C 29.8in /  1009.1hPa West 10.1mph /  16.3km/h 11mph /  17.7km/h 85% 0.01in /  0.2mm 0 W/m2
00:18 43.3 °F /  6.3 °C 38.8 °F /  3.8 °C 29.8in /  1009.1hPa West 6.9mph /  11.1km/h 7mph /  11.3km/h 84% 0in /  0.0mm 0 W/m2
00:23 43.3 °F /  6.3 °C 38.8 °F /  3.8 °C 29.8in /  1009.1hPa WNW 2mph /  3.2km/h 4mph /  6.4km/h 84% 0in /  0.0mm 0 W/m2
00:28 43.2 °F /  6.2 °C 38.7 °F /  3.7 °C 29.8in /  1009.1hPa WNW 6.9mph /  11.1km/h 11mph /  17.7km/h 84% 0in /  0.0mm 0 W/m2
00:33 43.2 °F /  6.2 °C 38.7 °F /  3.7 °C 29.8in /  1009.1hPa WSW 4.9mph /  7.9km/h 7mph /  11.3km/h 84% 0in /  0.0mm 0 W/m2
00:38 43 °F /  6.1 °C 38.5 °F /  3.6 °C 29.8in /  1009.1hPa West 8.1mph /  13km/h 11mph /  17.7km/h 84% 0in /  0.0mm 0 W/m2
00:43 42.8 °F /  6 °C 38.7 °F /  3.7 °C 29.8in /  1009.1hPa WNW 4mph /  6.4km/h 8mph /  12.9km/h 85% 0in /  0.0mm 0 W/m2
00:48 42.8 °F /  6 °C 38.7 °F /  3.7 °C 29.8in /  1009.1hPa WNW 2mph /  3.2km/h 11mph /  17.7km/h 85% 0in /  0.0mm 0 W/m2
00:53 42.6 °F /  5.9 °C 38.7 °F /  3.7 °C 29.8in /  1009.5hPa NW 4mph /  6.4km/h 4mph /  6.4km/h 86% 0in /  0.0mm 0 W/m2
00:58 42.6 °F /  5.9 °C 38.7 °F /  3.7 °C 29.8in /  1009.5hPa West 10.1mph /  16.3km/h 11mph /  17.7km/h 86% 0in /  0.0mm 0 W/m2
01:03 42.8 °F /  6 °C 38.8 °F /  3.8 °C 29.8in /  1009.5hPa West 17mph /  27.4km/h 17mph /  27.4km/h 86% 0in /  0.0mm 0 W/m2
01:08 43 °F /  6.1 °C 38.8 °F /  3.8 °C 29.8in /  1009.5hPa NW 4.9mph /  7.9km/h 15mph /  24.1km/h 85% 0in /  0.0mm 0 W/m2
01:13 43.2 °F /  6.2 °C 38.7 °F /  3.7 °C 29.8in /  1009.8hPa NW 6mph /  9.7km/h 15mph /  24.1km/h 84% 0in /  0.0mm 0 W/m2
01:18 43.3 °F /  6.3 °C 38.5 °F /  3.6 °C 29.8in /  1009.8hPa West 6.9mph /  11.1km/h 17mph /  27.4km/h 83% 0in /  0.0mm 0 W/m2
01:23 43.3 °F /  6.3 °C 38.3 °F /  3.5 °C 29.8in /  1009.8hPa West 8.1mph /  13km/h 17mph /  27.4km/h 82% 0in /  0.0mm 0 W/m2
01:28 43.3 °F /  6.3 °C 38.3 °F /  3.5 °C 29.8in /  1010.2hPa NW 4mph /  6.4km/h 11mph /  17.7km/h 82% 0in /  0.0mm 0 W/m2
01:33 43.5 °F /  6.4 °C 38.5 °F /  3.6 °C 29.8in /  1010.2hPa WNW 2.9mph /  4.7km/h 10mph /  16.1km/h 82% 0in /  0.0mm 0 W/m2
01:38 43.3 °F /  6.3 °C 38.3 °F /  3.5 °C 29.8in /  1010.2hPa West 6.9mph /  11.1km/h 12mph /  19.3km/h 82% 0in /  0.0mm 0 W/m2
01:43 43.3 °F /  6.3 °C 38.3 °F /  3.5 °C 29.8in /  1010.2hPa WNW 6mph /  9.7km/h 13mph /  20.9km/h 82% 0in /  0.0mm 0 W/m2
01:48 43.3 °F /  6.3 °C 37.9 °F /  3.3 °C 29.8in /  1010.2hPa West 6mph /  9.7km/h 13mph /  20.9km/h 81% 0in /  0.0mm 0 W/m2
01:53 43.3 °F /  6.3 °C 37.6 °F /  3.1 °C 29.8in /  1010.5hPa North 6mph /  9.7km/h 15mph /  24.1km/h 80% 0in /  0.0mm 0 W/m2
01:58 43.3 °F /  6.3 °C 37.6 °F /  3.1 °C 29.8in /  1010.5hPa WNW 8.1mph /  13km/h 12mph /  19.3km/h 80% 0in /  0.0mm 0 W/m2
02:03 43.2 °F /  6.2 °C 37.4 °F /  3 °C 29.8in /  1010.2hPa WNW 10.1mph /  16.3km/h 16mph /  25.7km/h 80% 0in /  0.0mm 0 W/m2
02:08 43.2 °F /  6.2 °C 36.7 °F /  2.6 °C 29.8in /  1010.5hPa WSW 8.9mph /  14.3km/h 15mph /  24.1km/h 78% 0in /  0.0mm 0 W/m2
02:13 43 °F /  6.1 °C 36.7 °F /  2.6 °C 29.8in /  1010.5hPa WSW 8.9mph /  14.3km/h 15mph /  24.1km/h 78% 0in /  0.0mm 0 W/m2
02:18 43 °F /  6.1 °C 36.3 °F /  2.4 °C 29.8in /  1010.5hPa WNW 6.9mph /  11.1km/h 16mph /  25.7km/h 77% 0in /  0.0mm 0 W/m2
02:23 42.8 °F /  6 °C 36.1 °F /  2.3 °C 29.8in /  1010.5hPa WNW 2.9mph /  4.7km/h 10mph /  16.1km/h 77% 0in /  0.0mm 0 W/m2
02:28 42.6 °F /  5.9 °C 36.3 °F /  2.4 °C 29.8in /  1010.5hPa WNW 4mph /  6.4km/h 16mph /  25.7km/h 78% 0in /  0.0mm 0 W/m2
02:33 42.4 °F /  5.8 °C 36.3 °F /  2.4 °C 29.8in /  1010.5hPa NNW 4.9mph /  7.9km/h 8mph /  12.9km/h 79% 0in /  0.0mm 0 W/m2
02:38 42.3 °F /  5.7 °C 36.5 °F /  2.5 °C 29.9in /  1010.8hPa NW 2.9mph /  4.7km/h 10mph /  16.1km/h 80% 0in /  0.0mm 0 W/m2
02:43 42.3 °F /  5.7 °C 36.9 °F /  2.7 °C 29.8in /  1010.5hPa West 6mph /  9.7km/h 7mph /  11.3km/h 81% 0in /  0.0mm 0 W/m2
02:48 42.3 °F /  5.7 °C 36.9 °F /  2.7 °C 29.8in /  1010.5hPa NW 4.9mph /  7.9km/h 11mph /  17.7km/h 81% 0in /  0.0mm 0 W/m2
02:53 42.3 °F /  5.7 °C 36.9 °F /  2.7 °C 29.9in /  1010.8hPa West 6.9mph /  11.1km/h 14mph /  22.5km/h 81% 0in /  0.0mm 0 W/m2
02:58 42.3 °F /  5.7 °C 36.9 °F /  2.7 °C 29.9in /  1010.8hPa WNW 6.9mph /  11.1km/h 9mph /  14.5km/h 81% 0in /  0.0mm 0 W/m2
03:03 42.3 °F /  5.7 °C 36.9 °F /  2.7 °C 29.8in /  1010.5hPa West 2.9mph /  4.7km/h 9mph /  14.5km/h 81% 0in /  0.0mm 0 W/m2
03:08 42.3 °F /  5.7 °C 36.9 °F /  2.7 °C 29.9in /  1010.8hPa WSW 4mph /  6.4km/h 4mph /  6.4km/h 81% 0in /  0.0mm 0 W/m2
03:13 42.3 °F /  5.7 °C 37.2 °F /  2.9 °C 29.9in /  1010.8hPa WSW 2mph /  3.2km/h 9mph /  14.5km/h 82% 0in /  0.0mm 0 W/m2
03:18 42.3 °F /  5.7 °C 37.2 °F /  2.9 °C 29.9in /  1010.8hPa WSW 4mph /  6.4km/h 12mph /  19.3km/h 82% 0in /  0.0mm 0 W/m2
03:23 42.3 °F /  5.7 °C 37.4 °F /  3 °C 29.9in /  1010.8hPa West 4mph /  6.4km/h 8mph /  12.9km/h 83% 0in /  0.0mm 0 W/m2
03:28 42.3 °F /  5.7 °C 37.4 °F /  3 °C 29.9in /  1010.8hPa West 2.9mph /  4.7km/h 12mph /  19.3km/h 83% 0in /  0.0mm 0 W/m2
03:33 42.1 °F /  5.6 °C 37.6 °F /  3.1 °C 29.9in /  1010.8hPa WNW 0.9mph /  1.4km/h 9mph /  14.5km/h 84% 0in /  0.0mm 0 W/m2
03:38 42.1 °F /  5.6 °C 37.6 °F /  3.1 °C 29.9in /  1010.8hPa West 2mph /  3.2km/h 4mph /  6.4km/h 84% 0in /  0.0mm 0 W/m2
03:43 42.1 °F /  5.6 °C 37.6 °F /  3.1 °C 29.9in /  1010.8hPa WNW 2.9mph /  4.7km/h 6mph /  9.7km/h 84% 0in /  0.0mm 0 W/m2
03:48 42.1 °F /  5.6 °C 37.6 °F /  3.1 °C 29.9in /  1010.8hPa WNW 6mph /  9.7km/h 6mph /  9.7km/h 84% 0in /  0.0mm 0 W/m2
03:53 42.1 °F /  5.6 °C 37.6 °F /  3.1 °C 29.9in /  1010.8hPa WSW 4.9mph /  7.9km/h 11mph /  17.7km/h 84% 0in /  0.0mm 0 W/m2
03:58 42.1 °F /  5.6 °C 37.6 °F /  3.1 °C 29.9in /  1010.8hPa WNW 8.1mph /  13km/h 8mph /  12.9km/h 84% 0in /  0.0mm 0 W/m2
04:03 42.1 °F /  5.6 °C 37.2 °F /  2.9 °C 29.9in /  1010.8hPa NW 2.9mph /  4.7km/h 10mph /  16.1km/h 83% 0in /  0.0mm 0 W/m2
04:08 42.1 °F /  5.6 °C 37.2 °F /  2.9 °C 29.9in /  1010.8hPa WNW 4mph /  6.4km/h 5mph /  8km/h 83% 0in /  0.0mm 0 W/m2
04:13 42.1 °F /  5.6 °C 37.2 °F /  2.9 °C 29.9in /  1010.8hPa West 6.9mph /  11.1km/h 13mph /  20.9km/h 83% 0in /  0.0mm 0 W/m2
04:18 42.1 °F /  5.6 °C 37.2 °F /  2.9 °C 29.9in /  1010.8hPa West 4mph /  6.4km/h 7mph /  11.3km/h 83% 0in /  0.0mm 0 W/m2
04:23 42.1 °F /  5.6 °C 37.6 °F /  3.1 °C 29.9in /  1010.8hPa West 2.9mph /  4.7km/h 10mph /  16.1km/h 84% 0in /  0.0mm 0 W/m2
04:29 41.9 °F /  5.5 °C 37.4 °F /  3 °C 29.9in /  1010.8hPa WSW 10.1mph /  16.3km/h 12mph /  19.3km/h 84% 0in /  0.0mm 0 W/m2
04:34 41.7 °F /  5.4 °C 37.2 °F /  2.9 °C 29.9in /  1010.8hPa West 4mph /  6.4km/h 9mph /  14.5km/h 84% 0in /  0.0mm 0 W/m2
04:39 41.7 °F /  5.4 °C 37.2 °F /  2.9 °C 29.9in /  1010.8hPa NW 4mph /  6.4km/h 5mph /  8km/h 84% 0in /  0.0mm 0 W/m2
04:44 41.7 °F /  5.4 °C 37.2 °F /  2.9 °C 29.9in /  1011.2hPa NNW 2.9mph /  4.7km/h 4mph /  6.4km/h 84% 0in /  0.0mm 0 W/m2
04:49 41.7 °F /  5.4 °C 36.9 °F /  2.7 °C 29.9in /  1011.2hPa WNW 6mph /  9.7km/h 14mph /  22.5km/h 83% 0in /  0.0mm 0 W/m2
04:54 41.7 °F /  5.4 °C 36.9 °F /  2.7 °C 29.9in /  1011.2hPa West 2mph /  3.2km/h 6mph /  9.7km/h 83% 0in /  0.0mm 0 W/m2
04:59 41.7 °F /  5.4 °C 37.2 °F /  2.9 °C 29.9in /  1011.2hPa WNW 6.9mph /  11.1km/h 8mph /  12.9km/h 84% 0in /  0.0mm 0 W/m2
05:04 41.7 °F /  5.4 °C 37.2 °F /  2.9 °C 29.9in /  1011.2hPa West 2.9mph /  4.7km/h 5mph /  8km/h 84% 0in /  0.0mm 0 W/m2
05:09 41.7 °F /  5.4 °C 37.2 °F /  2.9 °C 29.9in /  1011.2hPa West 6.9mph /  11.1km/h 8mph /  12.9km/h 84% 0in /  0.0mm 0 W/m2
05:14 41.7 °F /  5.4 °C 37.2 °F /  2.9 °C 29.9in /  1011.2hPa West 4mph /  6.4km/h 11mph /  17.7km/h 84% 0in /  0.0mm 0 W/m2
05:19 41.7 °F /  5.4 °C 37.2 °F /  2.9 °C 29.9in /  1011.2hPa NW 2mph /  3.2km/h 3mph /  4.8km/h 84% 0in /  0.0mm 0 W/m2
05:24 41.7 °F /  5.4 °C 37.6 °F /  3.1 °C 29.9in /  1011.2hPa West 0.9mph /  1.4km/h 11mph /  17.7km/h 85% 0in /  0.0mm 0 W/m2
05:29 41.7 °F /  5.4 °C 37.6 °F /  3.1 °C 29.9in /  1011.2hPa NW 2mph /  3.2km/h 3mph /  4.8km/h 85% 0in /  0.0mm 0 W/m2
05:34 41.7 °F /  5.4 °C 37.6 °F /  3.1 °C 29.9in /  1011.2hPa NNW 0.9mph /  1.4km/h 8mph /  12.9km/h 85% 0in /  0.0mm 0 W/m2
05:39 41.7 °F /  5.4 °C 37.6 °F /  3.1 °C 29.9in /  1011.2hPa NNW 2mph /  3.2km/h 2mph /  3.2km/h 85% 0in /  0.0mm 0 W/m2
05:44 41.7 °F /  5.4 °C 37.6 °F /  3.1 °C 29.9in /  1011.2hPa West 6mph /  9.7km/h 11mph /  17.7km/h 85% 0in /  0.0mm 0 W/m2
05:49 41.9 °F /  5.5 °C 37.8 °F /  3.2 °C 29.9in /  1011.5hPa West 2mph /  3.2km/h 5mph /  8km/h 85% 0in /  0.0mm 0 W/m2
05:54 41.9 °F /  5.5 °C 37.8 °F /  3.2 °C 29.9in /  1011.5hPa SSW 2.9mph /  4.7km/h 3mph /  4.8km/h 85% 0in /  0.0mm 0 W/m2
05:59 41.9 °F /  5.5 °C 37.8 °F /  3.2 °C 29.9in /  1011.5hPa SE 6mph /  9.7km/h 8mph /  12.9km/h 85% 0in /  0.0mm 0 W/m2
06:04 41.9 °F /  5.5 °C 37.8 °F /  3.2 °C 29.9in /  1011.9hPa NW 4mph /  6.4km/h 5mph /  8km/h 85% 0in /  0.0mm 0 W/m2
06:09 42.1 °F /  5.6 °C 37.9 °F /  3.3 °C 29.9in /  1011.9hPa WSW 4.9mph /  7.9km/h 6mph /  9.7km/h 85% 0in /  0.0mm 0 W/m2
06:14 42.1 °F /  5.6 °C 37.9 °F /  3.3 °C 29.9in /  1011.9hPa Calm   3mph /  4.8km/h 85% 0in /  0.0mm 0 W/m2
06:19 42.1 °F /  5.6 °C 37.9 °F /  3.3 °C 29.9in /  1011.9hPa WSW 2mph /  3.2km/h 3mph /  4.8km/h 85% 0in /  0.0mm 0 W/m2
06:24 42.1 °F /  5.6 °C 37.9 °F /  3.3 °C 29.9in /  1011.9hPa West 0.9mph /  1.4km/h 3mph /  4.8km/h 85% 0in /  0.0mm 0 W/m2
06:29 42.1 °F /  5.6 °C 37.6 °F /  3.1 °C 29.9in /  1011.9hPa Calm   3mph /  4.8km/h 84% 0in /  0.0mm 0 W/m2
06:34 42.1 °F /  5.6 °C 37.6 °F /  3.1 °C 29.9in /  1011.9hPa NNW 0.9mph /  1.4km/h 2mph /  3.2km/h 84% 0in /  0.0mm 0 W/m2
06:39 42.1 °F /  5.6 °C 37.6 °F /  3.1 °C 29.9in /  1011.9hPa West 0.9mph /  1.4km/h 4mph /  6.4km/h 84% 0in /  0.0mm 0 W/m2
06:44 42.1 °F /  5.6 °C 37.6 °F /  3.1 °C 29.9in /  1011.9hPa East 2.9mph /  4.7km/h 4mph /  6.4km/h 84% 0in /  0.0mm 0 W/m2
06:49 42.1 °F /  5.6 °C 37.6 °F /  3.1 °C 29.9in /  1011.9hPa NNW 2.9mph /  4.7km/h 4mph /  6.4km/h 84% 0in /  0.0mm 0 W/m2
06:54 42.1 °F /  5.6 °C 37.9 °F /  3.3 °C 29.9in /  1011.9hPa NW 0.9mph /  1.4km/h 3mph /  4.8km/h 85% 0in /  0.0mm 0 W/m2
06:59 42.1 °F /  5.6 °C 37.9 °F /  3.3 °C 29.9in /  1011.9hPa SSW 2mph /  3.2km/h 3mph /  4.8km/h 85% 0in /  0.0mm 0 W/m2
07:04 41.9 °F /  5.5 °C 37.8 °F /  3.2 °C 29.9in /  1011.9hPa NNE 0.9mph /  1.4km/h 4mph /  6.4km/h 85% 0in /  0.0mm 5 W/m2
07:09 41.9 °F /  5.5 °C 37.8 °F /  3.2 °C 29.9in /  1011.9hPa ENE 2.9mph /  4.7km/h 5mph /  8km/h 85% 0in /  0.0mm 7 W/m2
07:14 42.1 °F /  5.6 °C 37.9 °F /  3.3 °C 29.9in /  1012.2hPa West 2mph /  3.2km/h 8mph /  12.9km/h 85% 0in /  0.0mm 7 W/m2
07:19 42.1 °F /  5.6 °C 37.9 °F /  3.3 °C 29.9in /  1011.9hPa South 0.9mph /  1.4km/h 6mph /  9.7km/h 85% 0in /  0.0mm 12 W/m2
07:24 42.1 °F /  5.6 °C 37.9 °F /  3.3 °C 29.9in /  1011.9hPa SW 6.9mph /  11.1km/h 8mph /  12.9km/h 85% 0in /  0.0mm 12 W/m2
07:29 42.1 °F /  5.6 °C 37.6 °F /  3.1 °C 29.9in /  1011.9hPa NNW 2mph /  3.2km/h 6mph /  9.7km/h 84% 0in /  0.0mm 19 W/m2
07:34 42.1 °F /  5.6 °C 37.6 °F /  3.1 °C 29.9in /  1011.9hPa NNE 2mph /  3.2km/h 4mph /  6.4km/h 84% 0in /  0.0mm 21 W/m2
07:39 42.3 °F /  5.7 °C 37.8 °F /  3.2 °C 29.9in /  1011.9hPa NW 2mph /  3.2km/h 8mph /  12.9km/h 84% 0in /  0.0mm 25 W/m2
07:44 42.3 °F /  5.7 °C 37.8 °F /  3.2 °C 29.9in /  1011.9hPa Calm   3mph /  4.8km/h 84% 0in /  0.0mm 32 W/m2
07:49 42.3 °F /  5.7 °C 37.8 °F /  3.2 °C 29.9in /  1011.9hPa NNW 0.9mph /  1.4km/h 3mph /  4.8km/h 84% 0in /  0.0mm 40 W/m2
07:54 42.3 °F /  5.7 °C 37.8 °F /  3.2 °C 29.9in /  1012.2hPa NW 2.9mph /  4.7km/h 5mph /  8km/h 84% 0in /  0.0mm 49 W/m2
07:59 42.3 °F /  5.7 °C 37.8 °F /  3.2 °C 29.9in /  1012.2hPa WSW 4mph /  6.4km/h 10mph /  16.1km/h 84% 0in /  0.0mm 44 W/m2
08:04 42.4 °F /  5.8 °C 37.9 °F /  3.3 °C 29.9in /  1012.5hPa NNW 0.9mph /  1.4km/h 11mph /  17.7km/h 84% 0in /  0.0mm 42 W/m2
08:09 42.4 °F /  5.8 °C 37.9 °F /  3.3 °C 29.9in /  1012.2hPa WSW 8.1mph /  13km/h 8mph /  12.9km/h 84% 0in /  0.0mm 44 W/m2
08:14 42.4 °F /  5.8 °C 37.9 °F /  3.3 °C 29.9in /  1012.5hPa SSW 4mph /  6.4km/h 12mph /  19.3km/h 84% 0in /  0.0mm 44 W/m2
08:19 42.4 °F /  5.8 °C 37.9 °F /  3.3 °C 29.9in /  1012.2hPa NW 2.9mph /  4.7km/h 6mph /  9.7km/h 84% 0in /  0.0mm 49 W/m2
08:24 42.4 °F /  5.8 °C 37.9 °F /  3.3 °C 29.9in /  1012.2hPa NW 2mph /  3.2km/h 12mph /  19.3km/h 84% 0in /  0.0mm 76 W/m2
08:29 42.4 °F /  5.8 °C 37.9 °F /  3.3 °C 29.9in /  1012.2hPa North 2mph /  3.2km/h 7mph /  11.3km/h 84% 0in /  0.0mm 74 W/m2
08:34 42.6 °F /  5.9 °C 38.1 °F /  3.4 °C 29.9in /  1012.2hPa NW 0.9mph /  1.4km/h 8mph /  12.9km/h 84% 0in /  0.0mm 121 W/m2
08:39 42.8 °F /  6 °C 38.3 °F /  3.5 °C 29.9in /  1012.5hPa WNW 4mph /  6.4km/h 12mph /  19.3km/h 84% 0in /  0.0mm 127 W/m2
08:44 43 °F /  6.1 °C 38.5 °F /  3.6 °C 29.9in /  1012.5hPa SW 2mph /  3.2km/h 6mph /  9.7km/h 84% 0in /  0.0mm 155 W/m2
08:49 43.2 °F /  6.2 °C 38.7 °F /  3.7 °C 29.9in /  1012.2hPa NW 2mph /  3.2km/h 12mph /  19.3km/h 84% 0in /  0.0mm 109 W/m2
08:54 43.2 °F /  6.2 °C 38.7 °F /  3.7 °C 29.9in /  1012.5hPa NW 2mph /  3.2km/h 4mph /  6.4km/h 84% 0in /  0.0mm 104 W/m2
08:59 43.2 °F /  6.2 °C 38.7 °F /  3.7 °C 29.9in /  1012.5hPa WNW 8.1mph /  13km/h 10mph /  16.1km/h 84% 0in /  0.0mm 97 W/m2
09:04 43.2 °F /  6.2 °C 38.7 °F /  3.7 °C 29.9in /  1012.5hPa WNW 4.9mph /  7.9km/h 10mph /  16.1km/h 84% 0in /  0.0mm 113 W/m2
09:09 43.2 °F /  6.2 °C 38.7 °F /  3.7 °C 29.9in /  1012.5hPa NNW 2.9mph /  4.7km/h 7mph /  11.3km/h 84% 0in /  0.0mm 69 W/m2
09:14 43.3 °F /  6.3 °C 38.5 °F /  3.6 °C 29.9in /  1012.5hPa WNW 4mph /  6.4km/h 6mph /  9.7km/h 83% 0in /  0.0mm 81 W/m2
09:19 43.3 °F /  6.3 °C 38.5 °F /  3.6 °C 29.9in /  1012.9hPa WNW 4.9mph /  7.9km/h 15mph /  24.1km/h 83% 0in /  0.0mm 120 W/m2
09:24 43.3 °F /  6.3 °C 38.5 °F /  3.6 °C 29.9in /  1012.5hPa WNW 2mph /  3.2km/h 6mph /  9.7km/h 83% 0in /  0.0mm 90 W/m2
09:29 43.3 °F /  6.3 °C 38.5 °F /  3.6 °C 29.9in /  1012.5hPa WSW 0.9mph /  1.4km/h 10mph /  16.1km/h 83% 0in /  0.0mm 151 W/m2
09:34 43.5 °F /  6.4 °C 38.7 °F /  3.7 °C 29.9in /  1012.5hPa WNW 2mph /  3.2km/h 8mph /  12.9km/h 83% 0in /  0.0mm 432 W/m2
09:40 43.9 °F /  6.6 °C 39 °F /  3.9 °C 29.9in /  1012.5hPa West 2mph /  3.2km/h 13mph /  20.9km/h 83% 0in /  0.0mm 181 W/m2
09:45 44.1 °F /  6.7 °C 38.8 °F /  3.8 °C 29.9in /  1012.2hPa NNW 6mph /  9.7km/h 9mph /  14.5km/h 82% 0in /  0.0mm 323 W/m2
09:50 44.2 °F /  6.8 °C 39 °F /  3.9 °C 29.9in /  1012.2hPa NW 2mph /  3.2km/h 13mph /  20.9km/h 82% 0in /  0.0mm 113 W/m2
09:55 44.6 °F /  7 °C 39.4 °F /  4.1 °C 29.9in /  1012.5hPa SSE 4.9mph /  7.9km/h 10mph /  16.1km/h 82% 0in /  0.0mm 313 W/m2
10:00 44.8 °F /  7.1 °C 39.4 °F /  4.1 °C 29.9in /  1012.5hPa NW 6mph /  9.7km/h 11mph /  17.7km/h 81% 0in /  0.0mm 134 W/m2
10:05 44.4 °F /  6.9 °C 39.2 °F /  4 °C 29.9in /  1012.5hPa WNW 8.1mph /  13km/h 9mph /  14.5km/h 82% 0in /  0.0mm 144 W/m2
10:10 44.2 °F /  6.8 °C 39 °F /  3.9 °C 29.9in /  1012.5hPa NNW 2.9mph /  4.7km/h 3mph /  4.8km/h 82% 0in /  0.0mm 118 W/m2
10:15 44.2 °F /  6.8 °C 39.4 °F /  4.1 °C 29.9in /  1012.5hPa WNW 0.9mph /  1.4km/h 4mph /  6.4km/h 83% 0in /  0.0mm 218 W/m2
10:20 44.4 °F /  6.9 °C 39.2 °F /  4 °C 29.9in /  1012.5hPa WSW 0.9mph /  1.4km/h 11mph /  17.7km/h 82% 0in /  0.0mm 165 W/m2
10:25 44.4 °F /  6.9 °C 39.2 °F /  4 °C 29.9in /  1012.5hPa ESE 2mph /  3.2km/h 8mph /  12.9km/h 82% 0in /  0.0mm 223 W/m2
10:30 44.8 °F /  7.1 °C 38.7 °F /  3.7 °C 29.9in /  1012.5hPa WNW 4.9mph /  7.9km/h 14mph /  22.5km/h 79% 0in /  0.0mm 301 W/m2
10:35 45.1 °F /  7.3 °C 39 °F /  3.9 °C 29.9in /  1012.5hPa East 4mph /  6.4km/h 7mph /  11.3km/h 79% 0in /  0.0mm 137 W/m2
10:40 45.3 °F /  7.4 °C 38.8 °F /  3.8 °C 29.9in /  1012.5hPa West 2.9mph /  4.7km/h 9mph /  14.5km/h 78% 0in /  0.0mm 225 W/m2
10:45 45.5 °F /  7.5 °C 39 °F /  3.9 °C 29.9in /  1012.2hPa WSW 4.9mph /  7.9km/h 7mph /  11.3km/h 78% 0in /  0.0mm 171 W/m2
10:50 45.5 °F /  7.5 °C 39 °F /  3.9 °C 29.9in /  1012.2hPa WNW 2mph /  3.2km/h 9mph /  14.5km/h 78% 0in /  0.0mm 227 W/m2
10:55 45.5 °F /  7.5 °C 39 °F /  3.9 °C 29.9in /  1012.2hPa NE 2.9mph /  4.7km/h 5mph /  8km/h 78% 0in /  0.0mm 97 W/m2
11:00 45.5 °F /  7.5 °C 39 °F /  3.9 °C 29.9in /  1012.2hPa NW 0.9mph /  1.4km/h 7mph /  11.3km/h 78% 0in /  0.0mm 139 W/m2
11:05 45.7 °F /  7.6 °C 39.2 °F /  4 °C 29.9in /  1012.2hPa WNW 8.9mph /  14.3km/h 9mph /  14.5km/h 78% 0in /  0.0mm 186 W/m2
11:10 45.9 °F /  7.7 °C 39 °F /  3.9 °C 29.9in /  1012.2hPa NNW 2mph /  3.2km/h 5mph /  8km/h 77% 0in /  0.0mm 190 W/m2
11:15 45.9 °F /  7.7 °C 39 °F /  3.9 °C 29.9in /  1012.2hPa WNW 2.9mph /  4.7km/h 5mph /  8km/h 77% 0in /  0.0mm 237 W/m2
11:20 45.9 °F /  7.7 °C 38.7 °F /  3.7 °C 29.9in /  1012.2hPa NW 0.9mph /  1.4km/h 9mph /  14.5km/h 76% 0in /  0.0mm 190 W/m2
11:25 46 °F /  7.8 °C 38.5 °F /  3.6 °C 29.9in /  1012.2hPa NW 4.9mph /  7.9km/h 12mph /  19.3km/h 75% 0in /  0.0mm 223 W/m2
11:30 46.2 °F /  7.9 °C 38.7 °F /  3.7 °C 29.9in /  1012.2hPa WSW 8.1mph /  13km/h 12mph /  19.3km/h 75% 0in /  0.0mm 241 W/m2
11:35 46.6 °F /  8.1 °C 38.7 °F /  3.7 °C 29.9in /  1012.2hPa SSE 8.9mph /  14.3km/h 13mph /  20.9km/h 74% 0in /  0.0mm 733 W/m2
11:40 46.8 °F /  8.2 °C 38.5 °F /  3.6 °C 29.9in /  1011.9hPa West 12.1mph /  19.5km/h 14mph /  22.5km/h 73% 0in /  0.0mm 155 W/m2
11:45 46.6 °F /  8.1 °C 38.5 °F /  3.6 °C 29.9in /  1011.9hPa WNW 2.9mph /  4.7km/h 8mph /  12.9km/h 73% 0in /  0.0mm 132 W/m2
11:50 46.6 °F /  8.1 °C 38.5 °F /  3.6 °C 29.9in /  1011.9hPa NNW 2.9mph /  4.7km/h 9mph /  14.5km/h 73% 0in /  0.0mm 158 W/m2
11:55 46.9 °F /  8.3 °C 38.7 °F /  3.7 °C 29.9in /  1011.5hPa West 6mph /  9.7km/h 9mph /  14.5km/h 73% 0in /  0.0mm 195 W/m2
12:00 46.9 °F /  8.3 °C 38.1 °F /  3.4 °C 29.9in /  1011.5hPa NE 2mph /  3.2km/h 5mph /  8km/h 71% 0in /  0.0mm 225 W/m2
12:05 47.1 °F /  8.4 °C 37.8 °F /  3.2 °C 29.9in /  1011.5hPa WNW 6.9mph /  11.1km/h 11mph /  17.7km/h 70% 0in /  0.0mm 272 W/m2
12:10 47.8 °F /  8.8 °C 38.5 °F /  3.6 °C 29.9in /  1011.9hPa WNW 2.9mph /  4.7km/h 13mph /  20.9km/h 70% 0in /  0.0mm 854 W/m2
12:15 48.6 °F /  9.2 °C 38.8 °F /  3.8 °C 29.9in /  1011.5hPa West 4mph /  6.4km/h 10mph /  16.1km/h 69% 0in /  0.0mm 724 W/m2
12:20 48.7 °F /  9.3 °C 38.7 °F /  3.7 °C 29.9in /  1011.5hPa NW 4mph /  6.4km/h 8mph /  12.9km/h 68% 0in /  0.0mm 239 W/m2
12:25 48.6 °F /  9.2 °C 38.1 °F /  3.4 °C 29.9in /  1011.5hPa NW 2mph /  3.2km/h 4mph /  6.4km/h 67% 0in /  0.0mm 188 W/m2
12:30 48.6 °F /  9.2 °C 38.5 °F /  3.6 °C 29.9in /  1011.5hPa ESE 0.9mph /  1.4km/h 8mph /  12.9km/h 68% 0in /  0.0mm 188 W/m2
12:35 48.7 °F /  9.3 °C 38.3 °F /  3.5 °C 29.9in /  1011.5hPa NE 2mph /  3.2km/h 9mph /  14.5km/h 67% 0in /  0.0mm 800 W/m2
12:40 49.3 °F /  9.6 °C 37.9 °F /  3.3 °C 29.9in /  1011.2hPa West 10.1mph /  16.3km/h 13mph /  20.9km/h 65% 0in /  0.0mm 763 W/m2
12:45 49.5 °F /  9.7 °C 38.1 °F /  3.4 °C 29.9in /  1011.2hPa West 11mph /  17.7km/h 12mph /  19.3km/h 65% 0in /  0.0mm 777 W/m2
12:50 49.5 °F /  9.7 °C 37.4 °F /  3 °C 29.9in /  1011.5hPa South 4mph /  6.4km/h 17mph /  27.4km/h 63% 0in /  0.0mm 765 W/m2
12:55 49.5 °F /  9.7 °C 37.4 °F /  3 °C 29.9in /  1011.2hPa WSW 4.9mph /  7.9km/h 12mph /  19.3km/h 63% 0in /  0.0mm 789 W/m2
13:00 49.5 °F /  9.7 °C 37.8 °F /  3.2 °C 29.9in /  1011.2hPa North 2mph /  3.2km/h 10mph /  16.1km/h 64% 0in /  0.0mm 241 W/m2
13:05 49.6 °F /  9.8 °C 37.9 °F /  3.3 °C 29.9in /  1011.2hPa SSW 2.9mph /  4.7km/h 9mph /  14.5km/h 64% 0in /  0.0mm 250 W/m2
13:10 49.5 °F /  9.7 °C 37.4 °F /  3 °C 29.9in /  1010.8hPa NW 8.1mph /  13km/h 14mph /  22.5km/h 63% 0in /  0.0mm 506 W/m2
13:15 49.5 °F /  9.7 °C 38.1 °F /  3.4 °C 29.9in /  1010.8hPa WNW 8.1mph /  13km/h 10mph /  16.1km/h 65% 0in /  0.0mm 814 W/m2
13:20 49.6 °F /  9.8 °C 37.6 °F /  3.1 °C 29.9in /  1011.2hPa WSW 10.1mph /  16.3km/h 15mph /  24.1km/h 63% 0in /  0.0mm 183 W/m2
13:25 49.5 °F /  9.7 °C 37.8 °F /  3.2 °C 29.8in /  1010.5hPa West 8.9mph /  14.3km/h 13mph /  20.9km/h 64% 0in /  0.0mm 308 W/m2
13:30 49.3 °F /  9.6 °C 37.9 °F /  3.3 °C 29.9in /  1010.8hPa NNW 4mph /  6.4km/h 15mph /  24.1km/h 65% 0in /  0.0mm 308 W/m2
13:35 49.5 °F /  9.7 °C 38.1 °F /  3.4 °C 29.8in /  1010.5hPa NW 2.9mph /  4.7km/h 12mph /  19.3km/h 65% 0in /  0.0mm 462 W/m2
13:40 49.8 °F /  9.9 °C 38.1 °F /  3.4 °C 29.8in /  1010.2hPa WSW 8.1mph /  13km/h 18mph /  29km/h 64% 0in /  0.0mm 274 W/m2
13:45 49.6 °F /  9.8 °C 37.6 °F /  3.1 °C 29.8in /  1010.2hPa NW 12.1mph /  19.5km/h 12mph /  19.3km/h 63% 0in /  0.0mm 155 W/m2
13:50 49.6 °F /  9.8 °C 38.3 °F /  3.5 °C 29.8in /  1010.2hPa WSW 10.1mph /  16.3km/h 16mph /  25.7km/h 65% 0in /  0.0mm 427 W/m2
13:55 50.2 °F /  10.1 °C 38.8 °F /  3.8 °C 29.8in /  1010.2hPa SE 2.9mph /  4.7km/h 8mph /  12.9km/h 65% 0in /  0.0mm 487 W/m2
14:00 50.4 °F /  10.2 °C 38.3 °F /  3.5 °C 29.8in /  1010.2hPa WNW 8.9mph /  14.3km/h 9mph /  14.5km/h 63% 0in /  0.0mm 621 W/m2
14:05 50.5 °F /  10.3 °C 37.9 °F /  3.3 °C 29.8in /  1010.2hPa West 6mph /  9.7km/h 14mph /  22.5km/h 62% 0in /  0.0mm 522 W/m2
14:10 50.4 °F /  10.2 °C 38.3 °F /  3.5 °C 29.8in /  1009.8hPa WNW 4.9mph /  7.9km/h 6mph /  9.7km/h 63% 0in /  0.0mm 227 W/m2
14:15 50.7 °F /  10.4 °C 38.7 °F /  3.7 °C 29.8in /  1010.2hPa WNW 6mph /  9.7km/h 24mph /  38.6km/h 63% 0in /  0.0mm 668 W/m2
14:20 50.7 °F /  10.4 °C 37.8 °F /  3.2 °C 29.8in /  1009.5hPa WNW 2.9mph /  4.7km/h 16mph /  25.7km/h 61% 0in /  0.0mm 540 W/m2
14:25 50.7 °F /  10.4 °C 38.1 °F /  3.4 °C 29.8in /  1009.5hPa NNW 2.9mph /  4.7km/h 24mph /  38.6km/h 62% 0in /  0.0mm 125 W/m2
14:30 50.4 °F /  10.2 °C 38.3 °F /  3.5 °C 29.8in /  1009.5hPa SW 4.9mph /  7.9km/h 10mph /  16.1km/h 63% 0in /  0.0mm 213 W/m2
14:35 50.4 °F /  10.2 °C 38.3 °F /  3.5 °C 29.8in /  1009.8hPa NW 4.9mph /  7.9km/h 21mph /  33.8km/h 63% 0in /  0.0mm 555 W/m2
14:40 50.4 °F /  10.2 °C 38.3 °F /  3.5 °C 29.8in /  1009.5hPa WNW 4mph /  6.4km/h 5mph /  8km/h 63% 0in /  0.0mm 548 W/m2
14:45 50.7 °F /  10.4 °C 38.7 °F /  3.7 °C 29.8in /  1009.5hPa SW 2mph /  3.2km/h 15mph /  24.1km/h 63% 0in /  0.0mm 545 W/m2
14:50 50.5 °F /  10.3 °C 38.5 °F /  3.6 °C 29.8in /  1009.5hPa NE 2.9mph /  4.7km/h 12mph /  19.3km/h 63% 0in /  0.0mm 573 W/m2
14:55 50.5 °F /  10.3 °C 38.5 °F /  3.6 °C 29.8in /  1009.1hPa NE 2mph /  3.2km/h 8mph /  12.9km/h 63% 0in /  0.0mm 149 W/m2
15:00 50.7 °F /  10.4 °C 38.7 °F /  3.7 °C 29.8in /  1009.1hPa WSW 4.9mph /  7.9km/h 9mph /  14.5km/h 63% 0in /  0.0mm 158 W/m2
15:05 50.7 °F /  10.4 °C 38.1 °F /  3.4 °C 29.8in /  1009.1hPa WNW 8.1mph /  13km/h 11mph /  17.7km/h 62% 0in /  0.0mm 302 W/m2
15:10 50.7 °F /  10.4 °C 38.1 °F /  3.4 °C 29.8in /  1009.1hPa SSW 4.9mph /  7.9km/h 8mph /  12.9km/h 62% 0in /  0.0mm 123 W/m2
15:15 50.5 °F /  10.3 °C 37.9 °F /  3.3 °C 29.8in /  1008.8hPa SSW 8.1mph /  13km/h 14mph /  22.5km/h 62% 0in /  0.0mm 193 W/m2
15:20 50.9 °F /  10.5 °C 38.3 °F /  3.5 °C 29.8in /  1008.8hPa West 4mph /  6.4km/h 8mph /  12.9km/h 62% 0in /  0.0mm 193 W/m2
15:25 51.3 °F /  10.7 °C 38.3 °F /  3.5 °C 29.8in /  1008.8hPa WSW 2.9mph /  4.7km/h 8mph /  12.9km/h 61% 0in /  0.0mm 315 W/m2
15:30 51.4 °F /  10.8 °C 37.9 °F /  3.3 °C 29.8in /  1008.5hPa NW 2mph /  3.2km/h 9mph /  14.5km/h 60% 0in /  0.0mm 102 W/m2
15:35 51.3 °F /  10.7 °C 37.8 °F /  3.2 °C 29.8in /  1008.5hPa NNW 4.9mph /  7.9km/h 13mph /  20.9km/h 60% 0in /  0.0mm 151 W/m2
15:40 51.1 °F /  10.6 °C 38.5 °F /  3.6 °C 29.8in /  1008.5hPa NNW 4.9mph /  7.9km/h 8mph /  12.9km/h 62% 0in /  0.0mm 207 W/m2
15:45 51.1 °F /  10.6 °C 38.1 °F /  3.4 °C 29.8in /  1008.5hPa WNW 12.1mph /  19.5km/h 13mph /  20.9km/h 61% 0in /  0.0mm 137 W/m2
15:50 50.9 °F /  10.5 °C 38.3 °F /  3.5 °C 29.8in /  1008.5hPa NNW 4.9mph /  7.9km/h 10mph /  16.1km/h 62% 0in /  0.0mm 114 W/m2
15:55 50.9 °F /  10.5 °C 38.3 °F /  3.5 °C 29.8in /  1008.5hPa NW 8.1mph /  13km/h 17mph /  27.4km/h 62% 0in /  0.0mm 221 W/m2
16:00 50.7 °F /  10.4 °C 38.1 °F /  3.4 °C 29.8in /  1008.5hPa South 4mph /  6.4km/h 11mph /  17.7km/h 62% 0in /  0.0mm 160 W/m2
16:05 50.7 °F /  10.4 °C 38.1 °F /  3.4 °C 29.8in /  1008.1hPa WSW 4mph /  6.4km/h 5mph /  8km/h 62% 0in /  0.0mm 121 W/m2
16:10 50.7 °F /  10.4 °C 38.1 °F /  3.4 °C 29.8in /  1008.1hPa West 4mph /  6.4km/h 8mph /  12.9km/h 62% 0in /  0.0mm 84 W/m2
16:15 50.7 °F /  10.4 °C 38.7 °F /  3.7 °C 29.8in /  1008.1hPa NW 8.9mph /  14.3km/h 10mph /  16.1km/h 63% 0in /  0.0mm 70 W/m2
16:20 50.5 °F /  10.3 °C 38.8 °F /  3.8 °C 29.8in /  1008.1hPa NW 4.9mph /  7.9km/h 9mph /  14.5km/h 64% 0in /  0.0mm 141 W/m2
16:25 50.4 °F /  10.2 °C 39 °F /  3.9 °C 29.8in /  1008.1hPa NNW 4.9mph /  7.9km/h 8mph /  12.9km/h 65% 0in /  0.0mm 70 W/m2
16:30 50 °F /  10 °C 38.7 °F /  3.7 °C 29.8in /  1008.1hPa NE 4mph /  6.4km/h 14mph /  22.5km/h 65% 0in /  0.0mm 74 W/m2
16:35 49.8 °F /  9.9 °C 38.8 °F /  3.8 °C 29.8in /  1008.1hPa North 2.9mph /  4.7km/h 7mph /  11.3km/h 66% 0in /  0.0mm 40 W/m2
16:40 49.8 °F /  9.9 °C 38.8 °F /  3.8 °C 29.8in /  1007.8hPa NNW 2mph /  3.2km/h 14mph /  22.5km/h 66% 0in /  0.0mm 33 W/m2
16:45 49.8 °F /  9.9 °C 38.8 °F /  3.8 °C 29.8in /  1007.8hPa North 2.9mph /  4.7km/h 9mph /  14.5km/h 66% 0in /  0.0mm 53 W/m2
16:50 49.6 °F /  9.8 °C 39.2 °F /  4 °C 29.8in /  1007.5hPa NNE 2.9mph /  4.7km/h 7mph /  11.3km/h 67% 0in /  0.0mm 33 W/m2
16:55 49.5 °F /  9.7 °C 39 °F /  3.9 °C 29.8in /  1007.8hPa NW 4mph /  6.4km/h 12mph /  19.3km/h 67% 0in /  0.0mm 42 W/m2
17:00 49.6 °F /  9.8 °C 38.7 °F /  3.7 °C 29.8in /  1007.5hPa South 2.9mph /  4.7km/h 17mph /  27.4km/h 66% 0in /  0.0mm 63 W/m2
17:05 49.8 °F /  9.9 °C 38.5 °F /  3.6 °C 29.8in /  1007.5hPa West 4mph /  6.4km/h 17mph /  27.4km/h 65% 0in /  0.0mm 60 W/m2
17:10 50.2 °F /  10.1 °C 38.5 °F /  3.6 °C 29.8in /  1007.5hPa WNW 4mph /  6.4km/h 8mph /  12.9km/h 64% 0in /  0.0mm 77 W/m2
17:15 50.2 °F /  10.1 °C 38.5 °F /  3.6 °C 29.8in /  1007.5hPa West 6.9mph /  11.1km/h 17mph /  27.4km/h 64% 0in /  0.0mm 83 W/m2
17:20 50.4 °F /  10.2 °C 38.3 °F /  3.5 °C 29.7in /  1007.1hPa WNW 4mph /  6.4km/h 14mph /  22.5km/h 63% 0in /  0.0mm 67 W/m2
17:25 50.4 °F /  10.2 °C 38.3 °F /  3.5 °C 29.7in /  1007.1hPa West 8.1mph /  13km/h 9mph /  14.5km/h 63% 0in /  0.0mm 49 W/m2
17:30 50.4 °F /  10.2 °C 38.3 °F /  3.5 °C 29.7in /  1007.1hPa SE 0.9mph /  1.4km/h 14mph /  22.5km/h 63% 0in /  0.0mm 47 W/m2
17:35 50.4 °F /  10.2 °C 38.3 °F /  3.5 °C 29.7in /  1007.1hPa NW 6.9mph /  11.1km/h 12mph /  19.3km/h 63% 0in /  0.0mm 51 W/m2
17:40 50.4 °F /  10.2 °C 38.3 °F /  3.5 °C 29.7in /  1007.1hPa NNW 2.9mph /  4.7km/h 6mph /  9.7km/h 63% 0in /  0.0mm 62 W/m2
17:45 50.2 °F /  10.1 °C 38.1 °F /  3.4 °C 29.7in /  1007.1hPa WSW 10.1mph /  16.3km/h 15mph /  24.1km/h 63% 0in /  0.0mm 62 W/m2
17:50 50.2 °F /  10.1 °C 38.1 °F /  3.4 °C 29.7in /  1006.8hPa NW 2mph /  3.2km/h 8mph /  12.9km/h 63% 0in /  0.0mm 46 W/m2
17:55 50.2 °F /  10.1 °C 38.1 °F /  3.4 °C 29.7in /  1006.8hPa NW 2mph /  3.2km/h 12mph /  19.3km/h 63% 0in /  0.0mm 26 W/m2
18:00 50.2 °F /  10.1 °C 38.1 °F /  3.4 °C 29.7in /  1007.1hPa NNE 2.9mph /  4.7km/h 15mph /  24.1km/h 63% 0in /  0.0mm 11 W/m2
18:05 49.8 °F /  9.9 °C 38.5 °F /  3.6 °C 29.7in /  1007.1hPa WNW 8.9mph /  14.3km/h 14mph /  22.5km/h 65% 0in /  0.0mm 5 W/m2
18:10 49.1 °F /  9.5 °C 39.4 °F /  4.1 °C 29.7in /  1007.1hPa WSW 2mph /  3.2km/h 7mph /  11.3km/h 69% 0in /  0.0mm 9 W/m2
18:15 48.4 °F /  9.1 °C 39.7 °F /  4.3 °C 29.8in /  1007.5hPa WNW 8.1mph /  13km/h 8mph /  12.9km/h 72% 0in /  0.0mm 0 W/m2
18:20 47.8 °F /  8.8 °C 39.6 °F /  4.2 °C 29.8in /  1007.5hPa WNW 2.9mph /  4.7km/h 8mph /  12.9km/h 73% 0.01in /  0.2mm 0 W/m2
18:25 47.8 °F /  8.8 °C 39.9 °F /  4.4 °C 29.8in /  1007.5hPa West 6.9mph /  11.1km/h 11mph /  17.7km/h 74% 0.01in /  0.2mm 0 W/m2
18:30 47.7 °F /  8.7 °C 39.7 °F /  4.3 °C 29.8in /  1007.5hPa NW 6mph /  9.7km/h 13mph /  20.9km/h 74% 0.01in /  0.2mm 0 W/m2
18:35 47.5 °F /  8.6 °C 39.9 °F /  4.4 °C 29.8in /  1007.5hPa NW 8.1mph /  13km/h 10mph /  16.1km/h 75% 0.01in /  0.2mm 0 W/m2
18:40 47.3 °F /  8.5 °C 40.1 °F /  4.5 °C 29.8in /  1008.1hPa NW 6mph /  9.7km/h 13mph /  20.9km/h 76% 0.01in /  0.2mm 0 W/m2
18:46 45.1 °F /  7.3 °C 37.4 °F /  3 °C 29.8in /  1009.1hPa West 10.1mph /  16.3km/h 21mph /  33.8km/h 74% 0.04in /  1.0mm 0 W/m2
18:51 40.6 °F /  4.8 °C 36 °F /  2.2 °C 29.8in /  1009.1hPa WNW 11mph /  17.7km/h 17mph /  27.4km/h 83% 0.08in /  2.0mm 0 W/m2
18:56 39.2 °F /  4 °C 35.4 °F /  1.9 °C 29.8in /  1009.1hPa West 11mph /  17.7km/h 13mph /  20.9km/h 86% 0.09in /  2.3mm 0 W/m2
19:01 38.5 °F /  3.6 °C 35.2 °F /  1.8 °C 29.8in /  1009.1hPa West 10.1mph /  16.3km/h 15mph /  24.1km/h 88% 0.13in /  3.3mm 0 W/m2
19:06 37.8 °F /  3.2 °C 34.9 °F /  1.6 °C 29.8in /  1009.1hPa WNW 4mph /  6.4km/h 9mph /  14.5km/h 89% 0.13in /  3.3mm 0 W/m2
19:11 37.8 °F /  3.2 °C 35.1 °F /  1.7 °C 29.8in /  1009.1hPa West 4mph /  6.4km/h 9mph /  14.5km/h 90% 0.13in /  3.3mm 0 W/m2
19:16 37.8 °F /  3.2 °C 35.4 °F /  1.9 °C 29.8in /  1009.1hPa WSW 6.9mph /  11.1km/h 8mph /  12.9km/h 91% 0.14in /  3.6mm 0 W/m2
19:21 37.8 °F /  3.2 °C 35.4 °F /  1.9 °C 29.8in /  1009.1hPa NW 4mph /  6.4km/h 9mph /  14.5km/h 91% 0.14in /  3.6mm 0 W/m2
19:26 37.9 °F /  3.3 °C 35.6 °F /  2 °C 29.8in /  1009.1hPa NW 6.9mph /  11.1km/h 9mph /  14.5km/h 91% 0.15in /  3.8mm 0 W/m2
19:31 38.1 °F /  3.4 °C 36 °F /  2.2 °C 29.8in /  1009.1hPa WNW 8.1mph /  13km/h 8mph /  12.9km/h 92% 0.16in /  4.1mm 0 W/m2
19:36 38.5 °F /  3.6 °C 36.3 °F /  2.4 °C 29.8in /  1009.1hPa WSW 2.9mph /  4.7km/h 6mph /  9.7km/h 92% 0.17in /  4.3mm 0 W/m2
19:41 38.7 °F /  3.7 °C 36.5 °F /  2.5 °C 29.8in /  1009.1hPa WNW 2.9mph /  4.7km/h 3mph /  4.8km/h 92% 0.18in /  4.6mm 0 W/m2
19:46 38.8 °F /  3.8 °C 36.7 °F /  2.6 °C 29.8in /  1008.8hPa NW 2mph /  3.2km/h 7mph /  11.3km/h 92% 0.15in /  3.8mm 0 W/m2
19:51 39.2 °F /  4 °C 37.4 °F /  3 °C 29.8in /  1009.1hPa WSW 4mph /  6.4km/h 6mph /  9.7km/h 93% 0.11in /  2.8mm 0 W/m2
19:56 39.4 °F /  4.1 °C 37.2 °F /  2.9 °C 29.8in /  1009.1hPa NNW 2.9mph /  4.7km/h 3mph /  4.8km/h 92% 0.1in /  2.5mm 0 W/m2
20:01 39.6 °F /  4.2 °C 37.4 °F /  3 °C 29.8in /  1008.8hPa West 0.9mph /  1.4km/h 7mph /  11.3km/h 92% 0.07in /  1.8mm 0 W/m2
20:06 39.6 °F /  4.2 °C 37.4 °F /  3 °C 29.8in /  1008.8hPa West 0.9mph /  1.4km/h 2mph /  3.2km/h 92% 0.06in /  1.5mm 0 W/m2
20:11 39.6 °F /  4.2 °C 37.4 °F /  3 °C 29.8in /  1008.8hPa Calm   1mph /  1.6km/h 92% 0.06in /  1.5mm 0 W/m2
20:16 39.7 °F /  4.3 °C 37.9 °F /  3.3 °C 29.8in /  1008.8hPa East 0.9mph /  1.4km/h 3mph /  4.8km/h 93% 0.06in /  1.5mm 0 W/m2
20:21 39.7 °F /  4.3 °C 37.9 °F /  3.3 °C 29.8in /  1008.8hPa West 0.9mph /  1.4km/h 2mph /  3.2km/h 93% 0.05in /  1.3mm 0 W/m2
20:26 39.7 °F /  4.3 °C 37.9 °F /  3.3 °C 29.8in /  1008.5hPa WSW 2mph /  3.2km/h 2mph /  3.2km/h 93% 0.04in /  1.0mm 0 W/m2
20:31 39.9 °F /  4.4 °C 38.1 °F /  3.4 °C 29.8in /  1008.8hPa Calm   2mph /  3.2km/h 93% 0.03in /  0.8mm 0 W/m2
20:36 39.9 °F /  4.4 °C 38.1 °F /  3.4 °C 29.8in /  1008.8hPa WNW 4mph /  6.4km/h 5mph /  8km/h 93% 0.02in /  0.5mm 0 W/m2
20:41 39.9 °F /  4.4 °C 38.1 °F /  3.4 °C 29.8in /  1008.5hPa Calm   3mph /  4.8km/h 93% 0.01in /  0.2mm 0 W/m2
20:46 39.9 °F /  4.4 °C 38.1 °F /  3.4 °C 29.8in /  1008.5hPa WSW 0.9mph /  1.4km/h 1mph /  1.6km/h 93% 0.01in /  0.2mm 0 W/m2
20:51 39.9 °F /  4.4 °C 38.1 °F /  3.4 °C 29.8in /  1008.5hPa North 0.9mph /  1.4km/h 3mph /  4.8km/h 93% 0.01in /  0.2mm 0 W/m2
20:56 39.7 °F /  4.3 °C 37.9 °F /  3.3 °C 29.8in /  1008.5hPa East 2mph /  3.2km/h 2mph /  3.2km/h 93% 0in /  0.0mm 0 W/m2
21:01 39.7 °F /  4.3 °C 37.9 °F /  3.3 °C 29.8in /  1008.5hPa Calm   3mph /  4.8km/h 93% 0in /  0.0mm 0 W/m2
21:06 39.9 °F /  4.4 °C 38.1 °F /  3.4 °C 29.8in /  1008.5hPa Calm   3mph /  4.8km/h 93% 0in /  0.0mm 0 W/m2
21:11 39.9 °F /  4.4 °C 38.1 °F /  3.4 °C 29.8in /  1008.5hPa East 0.9mph /  1.4km/h 4mph /  6.4km/h 93% 0in /  0.0mm 0 W/m2
21:16 40.1 °F /  4.5 °C 38.3 °F /  3.5 °C 29.8in /  1008.5hPa ESE 2mph /  3.2km/h 6mph /  9.7km/h 93% 0in /  0.0mm 0 W/m2
21:21 40.3 °F /  4.6 °C 38.5 °F /  3.6 °C 29.8in /  1008.5hPa East 2.9mph /  4.7km/h 4mph /  6.4km/h 93% 0in /  0.0mm 0 W/m2
21:26 40.3 °F /  4.6 °C 38.5 °F /  3.6 °C 29.8in /  1008.5hPa East 0.9mph /  1.4km/h 6mph /  9.7km/h 93% 0in /  0.0mm 0 W/m2
21:31 40.3 °F /  4.6 °C 38.5 °F /  3.6 °C 29.8in /  1008.5hPa East 2mph /  3.2km/h 4mph /  6.4km/h 93% 0in /  0.0mm 0 W/m2
21:36 40.5 °F /  4.7 °C 38.7 °F /  3.7 °C 29.8in /  1008.5hPa Calm   3mph /  4.8km/h 93% 0in /  0.0mm 0 W/m2
21:41 40.5 °F /  4.7 °C 38.7 °F /  3.7 °C 29.8in /  1008.5hPa ENE 0.9mph /  1.4km/h 3mph /  4.8km/h 93% 0in /  0.0mm 0 W/m2
21:46 40.6 °F /  4.8 °C 38.8 °F /  3.8 °C 29.8in /  1008.1hPa Calm   4mph /  6.4km/h 93% 0in /  0.0mm 0 W/m2
21:51 40.8 °F /  4.9 °C 39 °F /  3.9 °C 29.8in /  1008.1hPa ESE 0.9mph /  1.4km/h 3mph /  4.8km/h 93% 0in /  0.0mm 0 W/m2
21:56 40.8 °F /  4.9 °C 39.2 °F /  4 °C 29.8in /  1008.1hPa ENE 0.9mph /  1.4km/h 4mph /  6.4km/h 94% 0in /  0.0mm 0 W/m2
22:01 41.2 °F /  5.1 °C 39.4 °F /  4.1 °C 29.8in /  1008.1hPa Calm   3mph /  4.8km/h 93% 0in /  0.0mm 0 W/m2
22:06 41.4 °F /  5.2 °C 39.6 °F /  4.2 °C 29.8in /  1008.1hPa West 0.9mph /  1.4km/h 2mph /  3.2km/h 93% 0in /  0.0mm 0 W/m2
22:11 41.5 °F /  5.3 °C 39.7 °F /  4.3 °C 29.8in /  1008.1hPa Calm   2mph /  3.2km/h 93% 0in /  0.0mm 0 W/m2
22:16 41.7 °F /  5.4 °C 39.9 °F /  4.4 °C 29.8in /  1008.1hPa NW 0.9mph /  1.4km/h 2mph /  3.2km/h 93% 0in /  0.0mm 0 W/m2
22:21 41.9 °F /  5.5 °C 40.1 °F /  4.5 °C 29.8in /  1008.1hPa NW 0.9mph /  1.4km/h 2mph /  3.2km/h 93% 0in /  0.0mm 0 W/m2
22:26 42.1 °F /  5.6 °C 39.9 °F /  4.4 °C 29.8in /  1008.1hPa Calm   4mph /  6.4km/h 92% 0in /  0.0mm 0 W/m2
22:31 42.3 °F /  5.7 °C 40.1 °F /  4.5 °C 29.8in /  1008.1hPa WSW 2mph /  3.2km/h 3mph /  4.8km/h 92% 0in /  0.0mm 0 W/m2
22:36 42.4 °F /  5.8 °C 40.3 °F /  4.6 °C 29.8in /  1008.1hPa NNW 2mph /  3.2km/h 4mph /  6.4km/h 92% 0in /  0.0mm 0 W/m2
22:41 42.6 °F /  5.9 °C 40.5 °F /  4.7 °C 29.8in /  1008.1hPa NW 2.9mph /  4.7km/h 6mph /  9.7km/h 92% 0in /  0.0mm 0 W/m2
22:46 42.8 °F /  6 °C 40.6 °F /  4.8 °C 29.8in /  1008.1hPa ESE 0.9mph /  1.4km/h 7mph /  11.3km/h 92% 0in /  0.0mm 0 W/m2
22:51 43 °F /  6.1 °C 40.5 °F /  4.7 °C 29.8in /  1008.1hPa WSW 4mph /  6.4km/h 8mph /  12.9km/h 91% 0in /  0.0mm 0 W/m2
22:56 43 °F /  6.1 °C 40.5 °F /  4.7 °C 29.8in /  1007.8hPa WNW 4mph /  6.4km/h 7mph /  11.3km/h 91% 0in /  0.0mm 0 W/m2
23:01 43 °F /  6.1 °C 40.5 °F /  4.7 °C 29.8in /  1008.1hPa West 4mph /  6.4km/h 9mph /  14.5km/h 91% 0in /  0.0mm 0 W/m2
23:06 43.2 °F /  6.2 °C 40.6 °F /  4.8 °C 29.8in /  1008.1hPa WNW 4mph /  6.4km/h 5mph /  8km/h 91% 0in /  0.0mm 0 W/m2
23:11 43.2 °F /  6.2 °C 40.6 °F /  4.8 °C 29.8in /  1008.1hPa NW 0.9mph /  1.4km/h 9mph /  14.5km/h 91% 0in /  0.0mm 0 W/m2
23:16 43.2 °F /  6.2 °C 40.6 °F /  4.8 °C 29.8in /  1008.1hPa WNW 2mph /  3.2km/h 3mph /  4.8km/h 91% 0in /  0.0mm 0 W/m2
23:21 43.3 °F /  6.3 °C 40.8 °F /  4.9 °C 29.8in /  1008.1hPa North 4mph /  6.4km/h 6mph /  9.7km/h 91% 0in /  0.0mm 0 W/m2
23:26 43.3 °F /  6.3 °C 40.8 °F /  4.9 °C 29.8in /  1008.1hPa ENE 2.9mph /  4.7km/h 5mph /  8km/h 91% 0in /  0.0mm 0 W/m2
23:31 43.3 °F /  6.3 °C 40.6 °F /  4.8 °C 29.8in /  1008.1hPa NE 2mph /  3.2km/h 3mph /  4.8km/h 90% 0in /  0.0mm 0 W/m2
23:36 43.3 °F /  6.3 °C 40.6 °F /  4.8 °C 29.8in /  1008.1hPa NW 6mph /  9.7km/h 9mph /  14.5km/h 90% 0in /  0.0mm 0 W/m2
23:41 43.5 °F /  6.4 °C 40.8 °F /  4.9 °C 29.8in /  1008.1hPa Calm   6mph /  9.7km/h 90% 0in /  0.0mm 0 W/m2
23:47 43.5 °F /  6.4 °C 40.8 °F /  4.9 °C 29.8in /  1008.1hPa West 2.9mph /  4.7km/h 6mph /  9.7km/h 90% 0in /  0.0mm 0 W/m2
23:52 43.5 °F /  6.4 °C 40.8 °F /  4.9 °C 29.8in /  1008.1hPa North 0.9mph /  1.4km/h 4mph /  6.4km/h 90% 0in /  0.0mm 0 W/m2
23:57 43.5 °F /  6.4 °C 40.8 °F /  4.9 °C 29.8in /  1007.8hPa West 6mph /  9.7km/h 9mph /  14.5km/h 90% 0in /  0.0mm 0 W/m2
Juneau County Weather
Compliments of Weather Underground - 4 mb